TimeEDT,TemperatureF,Dew PointF,Humidity,Sea Level PressureIn,VisibilityMPH,Wind Direction,Wind SpeedMPH,Gust SpeedMPH,PrecipitationIn,Events,Conditions,WindDirDegrees,DateUTC
12:19 AM,26.6,21.2,80,29.85,1.2,WNW,10.4,-,0.02,Snow,Light Snow,300,2013-03-22 04:19:00
12:22 AM,26.6,21.2,80,29.85,2.0,WNW,10.4,-,0.02,Snow,Light Snow,300,2013-03-22 04:22:00
12:30 AM,26.6,21.2,80,29.85,6.0,WNW,9.2,-,0.02,Snow,Light Snow,300,2013-03-22 04:30:00
12:39 AM,26.6,21.2,80,29.86,2.5,WNW,8.1,-,0.02,Snow,Light Snow,300,2013-03-22 04:39:00
12:42 AM,26.6,21.2,80,29.86,1.0,WNW,11.5,23.0,0.02,Snow,Light Snow,290,2013-03-22 04:42:00
12:50 AM,26.6,21.2,80,29.85,0.8,WNW,6.9,-,0.02,Snow,Light Snow,290,2013-03-22 04:50:00
12:53 AM,25.0,21.0,85,29.89,1.5,WNW,8.1,-,0.02,Snow,Light Snow,290,2013-03-22 04:53:00
12:57 AM,24.8,21.2,86,29.85,3.0,WNW,6.9,-,0.00,Snow,Light Snow,300,2013-03-22 04:57:00
1:26 AM,26.6,19.4,74,29.86,1.8,WNW,10.4,-,0.00,Snow,Light Snow,300,2013-03-22 05:26:00
1:40 AM,26.6,19.4,74,29.86,3.0,NW,8.1,-,0.00,Snow,Light Snow,320,2013-03-22 05:40:00
1:49 AM,26.6,19.4,74,29.86,1.8,WNW,6.9,16.1,0.00,Snow,Light Snow,300,2013-03-22 05:49:00
1:53 AM,26.1,19.9,78,29.89,1.5,NW,9.2,16.1,0.00,Snow,Light Snow,310,2013-03-22 05:53:00
2:14 AM,26.6,19.4,74,29.86,3.0,NW,9.2,-,0.00,Snow,Light Snow,320,2013-03-22 06:14:00
2:33 AM,26.6,21.2,80,29.86,3.0,NNW,8.1,-,0.00,Snow,Light Snow,330,2013-03-22 06:33:00
2:36 AM,26.6,21.2,80,29.86,1.8,NNW,6.9,-,0.00,Snow,Light Snow,340,2013-03-22 06:36:00
2:43 AM,26.6,19.4,74,29.86,1.2,NNW,8.1,16.1,0.01,Snow,Light Snow,330,2013-03-22 06:43:00
2:53 AM,25.0,19.9,81,29.90,1.8,NW,6.9,-,0.01,Snow,Light Snow,320,2013-03-22 06:53:00
3:00 AM,24.8,21.2,86,29.86,3.0,NW,5.8,-,0.00,Snow,Light Snow,320,2013-03-22 07:00:00
3:53 AM,26.1,21.0,81,29.90,2.5,NW,11.5,-,0.01,Snow,Light Snow,320,2013-03-22 07:53:00
4:01 AM,24.8,19.4,80,29.86,3.0,NW,9.2,21.9,0.00,Snow,Light Snow,310,2013-03-22 08:01:00
4:04 AM,24.8,19.4,80,29.86,2.5,NW,9.2,19.6,0.00,Snow,Light Snow,310,2013-03-22 08:04:00
4:14 AM,24.8,19.4,80,29.86,1.5,NW,8.1,-,0.00,Snow,Light Snow,310,2013-03-22 08:14:00
4:44 AM,24.8,19.4,80,29.86,2.5,WNW,6.9,-,0.00,Snow,Light Snow,300,2013-03-22 08:44:00
4:53 AM,25.0,19.9,81,29.90,2.5,WNW,6.9,-,0.01,Snow,Light Snow,290,2013-03-22 08:53:00
5:15 AM,26.6,19.4,74,29.86,3.0,WNW,9.2,18.4,0.00,Snow,Light Snow,300,2013-03-22 09:15:00
5:25 AM,26.6,19.4,74,29.86,2.5,WNW,9.2,18.4,0.00,Snow,Light Snow,300,2013-03-22 09:25:00
5:39 AM,24.8,19.4,80,29.86,4.0,WNW,9.2,-,0.00,Snow,Light Snow,300,2013-03-22 09:39:00
5:53 AM,25.0,19.9,81,29.90,3.0,WNW,6.9,-,0.00,Snow,Light Snow,300,2013-03-22 09:53:00
6:07 AM,24.8,19.4,80,29.87,2.5,WNW,8.1,-,0.00,Snow,Light Snow,300,2013-03-22 10:07:00
6:15 AM,24.8,19.4,80,29.87,2.0,WNW,10.4,16.1,0.00,Snow,Light Snow,300,2013-03-22 10:15:00
6:32 AM,24.8,17.6,74,29.88,4.0,NW,8.1,-,0.00,Snow,Light Snow,310,2013-03-22 10:32:00
6:53 AM,25.0,18.0,75,29.92,6.0,WNW,9.2,-,0.00,Snow,Light Snow,300,2013-03-22 10:53:00
7:51 AM,26.6,17.6,69,29.91,2.5,WNW,8.1,-,0.01,Snow,Light Snow,290,2013-03-22 11:51:00
7:53 AM,26.1,18.0,71,29.95,3.0,WNW,8.1,-,0.01,Snow,Light Snow,290,2013-03-22 11:53:00
8:17 AM,26.6,17.6,69,29.92,2.5,WNW,11.5,20.7,0.00,Snow,Light Snow,290,2013-03-22 12:17:00
8:32 AM,26.6,17.6,69,29.92,4.0,WNW,10.4,18.4,0.00,Snow,Light Snow,300,2013-03-22 12:32:00
8:51 AM,26.6,17.6,69,29.92,2.0,WNW,10.4,19.6,0.00,Snow,Light Snow,300,2013-03-22 12:51:00
8:53 AM,26.1,18.0,71,29.95,2.0,WNW,9.2,19.6,0.00,Snow,Light Snow,300,2013-03-22 12:53:00
9:53 AM,26.1,18.0,71,29.96,3.0,NW,10.4,16.1,0.01,Snow,Light Snow,310,2013-03-22 13:53:00
10:53 AM,27.0,16.0,63,29.96,10.0,WNW,12.7,20.7,0.00,,Overcast,290,2013-03-22 14:53:00
11:53 AM,27.0,16.0,63,29.98,10.0,WNW,10.4,20.7,N/A,,Overcast,290,2013-03-22 15:53:00
12:53 PM,27.0,16.0,63,29.99,10.0,WNW,11.5,20.7,N/A,,Overcast,300,2013-03-22 16:53:00
1:53 PM,27.0,17.1,66,29.99,10.0,West,13.8,-,N/A,,Overcast,280,2013-03-22 17:53:00
2:53 PM,27.0,17.1,66,29.99,10.0,West,15.0,-,N/A,,Overcast,280,2013-03-22 18:53:00
3:53 PM,28.0,17.1,63,29.99,10.0,West,13.8,20.7,N/A,,Overcast,270,2013-03-22 19:53:00
4:53 PM,28.0,18.0,66,30.00,10.0,West,11.5,-,N/A,,Overcast,270,2013-03-22 20:53:00
5:24 PM,28.4,17.6,64,29.97,10.0,West,11.5,-,N/A,,Overcast,260,2013-03-22 21:24:00
5:53 PM,28.9,17.1,61,30.00,10.0,WNW,9.2,-,N/A,,Overcast,300,2013-03-22 21:53:00
6:53 PM,30.0,17.1,59,30.01,10.0,West,8.1,-,N/A,,Overcast,270,2013-03-22 22:53:00
7:53 PM,28.9,16.0,58,30.02,10.0,West,4.6,-,N/A,,Overcast,280,2013-03-22 23:53:00
8:53 PM,26.1,16.0,66,30.03,10.0,Calm,Calm,-,N/A,,Overcast,0,2013-03-23 00:53:00
9:53 PM,28.0,17.1,63,30.03,10.0,Calm,Calm,-,N/A,,Overcast,0,2013-03-23 01:53:00
10:53 PM,26.1,17.1,69,30.04,10.0,Calm,Calm,-,N/A,,Overcast,0,2013-03-23 02:53:00
11:53 PM,21.0,15.1,78,30.04,10.0,Calm,Calm,-,N/A,,Overcast,0,2013-03-23 03:53:00